x

West Lake Ontario - Grimsby (45139) Wave Buoy

5:00am - Thu 25th May 2017 All times are CDT. -5 hours from GMT.

  • Sig Wave height 2.0ft
  • Peak Period 3s
  • Wind
    18mph, 20mph gusts
  • Sea Temp 47°f
  • Air Temp 51°f
  • Sea Pressure 1000.6mb
  • West Lake Ontario - Grimsby
  • West Lake Ontario - Grimsby

More Historic Weather Station data

Upgrade to MSW Pro to gain access to the past 30 days of data for over 8000 Wavebouys and Weather Stations around the globe.

Join Pro

Comparision Forecast

View Surf forecast
   
Thu 05/25 5:00am 2ft 3s 18 20 mph 1000.6mb 47f 51f
4:00am 1.6ft 4s 16 18 mph 1000.9mb 48f 52f
3:00am 1.3ft 4s 7 13 mph 1001.5mb 48f 52f
2:00am 1.3ft 4s 9 11 mph 1001.6mb 49f 51f
1:00am 1.3ft 5s 7 7 mph 1002.1mb 49f 50f
12:00am 1.6ft 5s 4 4 mph 1002.5mb 49f 50f
Wed 05/24 11:00pm 1.6ft 5s 4 4 mph 1002.3mb 49f 50f
10:00pm 2ft 5s 4 4 mph 1002.5mb 49f 50f
9:00pm 2ft 4s 4 7 mph 1002.5mb 48f 50f
8:00pm 2ft 4s 9 11 mph 1003mb 48f 50f
7:00pm 2ft 4s 9 11 mph 1002.2mb 49f 52f
6:00pm 2.5ft 5s 7 11 mph 1002.3mb 49f 54f
5:00pm 2.5ft 4s 7 9 mph 1002.5mb 49f 57f
4:00pm 2ft 4s 2 2 mph 1003.2mb 49f 55f
3:00pm 1.3ft 4s 7 9 mph 1003.3mb 49f 50f
2:00pm 1.3ft 4s 7 7 mph 1003.8mb 49f 49f
1:00pm 1ft 3s 4 4 mph 1004mb 48f 49f
12:00pm 0.7ft 3s 4 7 mph 1004.3mb 48f 49f
11:00am 0.7ft 3s 4 7 mph 1004.6mb 48f 49f
10:00am 0.7ft 3s 9 9 mph 1004.9mb 48f 49f
9:00am 0.7ft 3s 4 7 mph 1005.3mb 47f 49f
8:00am 0.7ft 2s 4 4 mph 1005.6mb 47f 49f
7:00am 0.3ft 2s 4 7 mph 1005.2mb 47f 49f
6:00am 0.3ft 2s 9 9 mph 1005.2mb 47f 48f
5:00am 0.3ft 4s 4 4 mph 1005.5mb 47f 49f
4:00am 0.3ft 2s 2 4 mph 1005.2mb 47f 49f
3:00am 0.3ft 2s 2 2 mph 1005.4mb 47f 49f
2:00am 0.3ft 2s 7 7 mph 1005.9mb 47f 48f
1:00am 0.3ft 2s 4 7 mph 1006mb 47f 49f
12:00am 0.3ft 2s 4 7 mph 1006.3mb 47f 49f
Tue 05/23 11:00pm 0.7ft 2s 4 4 mph 1006.9mb 47f 49f
10:00pm 0.7ft 2s 4 7 mph 1007.2mb 47f 51f
9:00pm 0.7ft 2s 2 2 mph 1007.6mb 47f 51f
8:00pm 0.3ft 2s 4 7 mph 1007.8mb 48f 51f
7:00pm 0.3ft 4s 9 9 mph 1007.4mb 48f 51f
6:00pm  -  4s 9 9 mph 1007.6mb 49f 56f
5:00pm 0.3ft 4s 9 9 mph 1007.5mb 48f 58f
4:00pm 0.3ft 4s 7 9 mph 1008mb 48f 59f
3:00pm 0.3ft 4s 11 11 mph 1008.3mb 49f 61f
2:00pm 0.3ft 3s 9 9 mph 1009mb 49f 60f
1:00pm 0.3ft 2s 4 4 mph 1009.7mb 49f 65f
12:00pm 0.3ft 5s 2 2 mph 1010.3mb 49f 64f
11:00am 0.3ft 4s 2 2 mph 1011mb 49f 63f
10:00am 0.3ft 4s  -  2 mph 1011.6mb 48f 61f
9:00am 0.3ft 2s 2 4 mph 1011.9mb 46f 57f
8:00am 0.3ft 2s 11 13 mph 1012mb 46f 59f
7:00am 0.3ft 2s 11 13 mph 1012mb 46f 56f
6:00am 0.3ft 2s 9 9 mph 1012.5mb 45f 54f
5:00am 0.3ft 3s 2 4 mph 1012.6mb 45f 52f
4:00am 0.3ft 2s 7 9 mph 1012.5mb 45f 51f
3:00am 0.3ft 2s 7 9 mph 1012.9mb 45f 51f
2:00am 0.3ft 4s 9 11 mph 1013.5mb 45f 53f
1:00am 0.3ft 3s 9 9 mph 1013.7mb 45f 54f
12:00am 0.3ft 4s 9 9 mph 1013.6mb 45f 55f
Mon 05/22 11:00pm 0.3ft 3s 4 4 mph 1014.1mb 45f 54f
10:00pm 0.3ft 2s 4 4 mph 1014.4mb 46f 52f
9:00pm 0.7ft 2s 7 9 mph 1014.7mb 46f 53f
8:00pm 0.7ft 2s 11 11 mph 1014.5mb 46f 55f
7:00pm 1ft 2s 13 16 mph 1013.9mb 46f 56f
6:00pm 1ft 2s 13 18 mph 1013.7mb 46f 57f
5:00pm 1ft 2s 13 18 mph 1013.6mb 46f 56f
4:00pm 1ft 2s 16 18 mph 1013.5mb 47f 57f
3:00pm 1ft 3s 16 18 mph 1013.5mb 47f 57f
2:00pm 1ft 3s 13 16 mph 1013.7mb 47f 56f
1:00pm 1ft 3s 16 20 mph 1013.7mb 47f 56f
12:00pm 1ft 3s 16 18 mph 1014.1mb 48f 55f
11:00am 1.3ft 3s 11 13 mph 1014mb 48f 52f
10:00am 1.3ft 4s 18 25 mph 1012.8mb 48f 58f
9:00am 1ft 4s 9 11 mph 1012.8mb 49f 55f
8:00am 1ft 4s 2 2 mph 1013mb 48f 51f
7:00am 1ft 4s 2 2 mph 1012.9mb 47f 52f
6:00am 1ft 4s 4 4 mph 1012.9mb 46f 49f
5:00am 1ft 4s 2 4 mph 1013.1mb 46f 49f
4:00am 1.3ft 4s 4 4 mph 1012.9mb 46f 47f
3:00am 1.3ft 5s 7 11 mph 1012.2mb 46f 49f
2:00am 1.3ft 4s 4 4 mph 1012.4mb 46f 54f
1:00am 1.3ft 5s 9 16 mph 1012.1mb 46f 58f
12:00am 1.6ft 4s 9 11 mph 1012.5mb 46f 56f
Sun 05/21 11:00pm 2ft 5s 4 9 mph 1012.8mb 47f 58f
10:00pm 2ft 5s 4 4 mph 1013.2mb 48f 48f
9:00pm 2ft 5s 2 2 mph 1013.6mb 48f 47f
8:00pm 2.5ft 5s 2 4 mph 1014.1mb 47f 46f
7:00pm 2.5ft 5s 4 4 mph 1014.2mb 48f 47f
6:00pm 2.5ft 5s 2 2 mph 1014.5mb 48f 47f
5:00pm 2.5ft 6s 4 4 mph 1015.3mb 48f 46f
4:00pm  -   -  2
mph
1015.5mb 48f 46f
3:00pm 2.5ft 5s 2 4 mph 1015.8mb 48f 47f
2:00pm 2.5ft 5s 7 9 mph 1016.4mb 48f 46f
1:00pm 2.5ft 5s 9 11 mph 1017.1mb 49f 46f